createdAt,value
2023-02-27T00:03:23.289Z,2.98
2023-02-27T00:08:25.393Z,2.91
2023-02-27T00:13:29.428Z,2.95
2023-02-27T00:18:31.525Z,2.97
2023-02-27T00:23:33.873Z,2.91
2023-02-27T00:28:35.962Z,2.77
2023-02-27T00:33:38.893Z,2.82
2023-02-27T00:38:43.500Z,2.82
2023-02-27T00:43:45.465Z,2.74
2023-02-27T00:48:47.391Z,2.76
2023-02-27T00:53:49.521Z,2.66
2023-02-27T00:58:51.563Z,2.64
2023-02-27T01:03:56.526Z,2.59
2023-02-27T01:08:58.569Z,2.51
2023-02-27T01:14:00.626Z,2.43
2023-02-27T01:19:02.961Z,2.32
2023-02-27T01:24:05.347Z,2.18
2023-02-27T01:29:07.779Z,2.20
2023-02-27T01:34:09.732Z,2.23
2023-02-27T01:39:11.754Z,2.32
2023-02-27T01:44:15.200Z,2.24
2023-02-27T01:49:32.746Z,2.22
2023-02-27T01:54:37.329Z,2.22
2023-02-27T01:59:41.515Z,1.96
2023-02-27T02:04:44.017Z,2.07
2023-02-27T02:09:49.698Z,2.10
2023-02-27T02:14:52.417Z,1.92
2023-02-27T02:20:18.411Z,1.89
2023-02-27T02:25:38.168Z,1.90
2023-02-27T02:30:52.271Z,1.70
2023-02-27T02:36:17.637Z,1.87
2023-02-27T02:41:22.689Z,1.78
2023-02-27T02:46:42.970Z,1.74
2023-02-27T02:51:51.174Z,1.72
2023-02-27T02:57:33.576Z,1.62
2023-02-27T03:02:41.189Z,1.55
2023-02-27T03:07:54.087Z,1.51
2023-02-27T03:12:59.729Z,1.65
2023-02-27T03:18:09.221Z,1.57
2023-02-27T03:23:18.086Z,1.59
2023-02-27T03:28:25.295Z,1.49
2023-02-27T03:33:35.844Z,1.45
2023-02-27T03:38:48.830Z,1.22
2023-02-27T03:44:07.844Z,1.28
2023-02-27T03:49:10.022Z,1.25
2023-02-27T03:54:17.268Z,1.17
2023-02-27T03:59:19.284Z,1.18
2023-02-27T04:04:26.124Z,1.15
2023-02-27T04:10:05.234Z,1.02
2023-02-27T04:15:41.281Z,1.08
2023-02-27T04:20:46.628Z,1.02
2023-02-27T04:25:57.491Z,0.99
2023-02-27T04:31:11.425Z,0.86
2023-02-27T04:36:19.209Z,0.62
2023-02-27T04:41:23.242Z,0.68
2023-02-27T04:46:28.577Z,0.73
2023-02-27T04:51:36.880Z,0.74
2023-02-27T04:56:44.963Z,0.77
2023-02-27T05:01:56.798Z,0.72
2023-02-27T05:07:00.295Z,0.68
2023-02-27T05:12:16.225Z,0.58
2023-02-27T05:17:23.068Z,0.64
2023-02-27T05:22:44.038Z,0.65
2023-02-27T05:27:51.578Z,0.61
2023-02-27T05:33:07.265Z,0.39
2023-02-27T05:38:18.248Z,0.37
2023-02-27T05:43:25.638Z,0.35
2023-02-27T05:48:31.720Z,0.28
2023-02-27T05:53:34.186Z,0.29
2023-02-27T05:58:46.401Z,0.30
2023-02-27T06:03:48.307Z,0.30
2023-02-27T06:08:50.254Z,0.37
2023-02-27T06:13:52.224Z,0.43
2023-02-27T06:18:55.643Z,0.53
2023-02-27T06:23:57.635Z,0.48
2023-02-27T06:29:00.037Z,0.53
2023-02-27T06:34:02.149Z,0.46
2023-02-27T06:39:05.031Z,0.54
2023-02-27T06:44:06.986Z,0.73
2023-02-27T06:49:09.003Z,0.87
2023-02-27T06:54:10.931Z,0.89
2023-02-27T06:59:13.188Z,0.91
2023-02-27T07:04:15.808Z,1.09
2023-02-27T07:09:17.934Z,1.11
2023-02-27T07:14:20.043Z,1.18
2023-02-27T07:19:24.712Z,1.15
2023-02-27T07:24:26.832Z,1.15
2023-02-27T07:29:28.821Z,1.17
2023-02-27T07:34:30.927Z,1.18
2023-02-27T07:39:32.835Z,1.03
2023-02-27T07:44:34.869Z,1.13
2023-02-27T07:49:36.807Z,1.16
2023-02-27T07:54:38.828Z,1.07
2023-02-27T07:59:40.911Z,1.25
2023-02-27T08:04:43.399Z,1.32
2023-02-27T08:09:45.302Z,1.39
2023-02-27T08:14:47.181Z,1.41
2023-02-27T08:19:49.128Z,1.52
2023-02-27T08:24:51.114Z,1.74
2023-02-27T08:29:53.083Z,1.93
2023-02-27T08:34:59.212Z,1.92
2023-02-27T08:40:02.797Z,2.08
2023-02-27T08:45:06.580Z,2.18
2023-02-27T08:50:10.698Z,2.28
2023-02-27T08:55:13.610Z,2.31
2023-02-27T09:00:17.002Z,2.56
2023-02-27T09:05:20.401Z,2.84
2023-02-27T09:10:23.195Z,3.05
2023-02-27T09:15:26.996Z,3.51
2023-02-27T09:20:33.474Z,3.86
2023-02-27T09:25:35.715Z,4.99
2023-02-27T09:30:37.605Z,6.23
2023-02-27T09:35:39.531Z,7.06
2023-02-27T09:40:42.536Z,7.29
2023-02-27T09:45:46.616Z,7.59
2023-02-27T09:50:50.232Z,7.75
2023-02-27T09:55:52.154Z,8.62
2023-02-27T10:01:01.006Z,8.23
2023-02-27T10:06:26.557Z,8.89
2023-02-27T10:11:57.740Z,9.52
2023-02-27T10:17:02.716Z,9.84
2023-02-27T10:22:08.241Z,9.12
2023-02-27T10:27:16.495Z,9.16
2023-02-27T10:32:31.012Z,9.46
2023-02-27T10:37:32.943Z,10.48
2023-02-27T10:42:36.766Z,10.04
2023-02-27T10:47:39.852Z,10.58
2023-02-27T10:52:53.775Z,9.92
2023-02-27T10:57:57.290Z,10.41
2023-02-27T11:02:59.762Z,9.75
2023-02-27T11:08:21.906Z,10.27
2023-02-27T11:13:26.023Z,10.86
2023-02-27T11:18:29.518Z,11.18
2023-02-27T11:23:34.081Z,11.00
2023-02-27T11:28:36.077Z,10.14
2023-02-27T11:33:57.112Z,9.69
2023-02-27T11:38:59.042Z,9.23
2023-02-27T11:44:05.069Z,9.13
2023-02-27T11:49:20.669Z,9.07
2023-02-27T11:54:41.298Z,8.67
2023-02-27T11:59:48.381Z,8.47
2023-02-27T12:05:16.943Z,8.70
2023-02-27T12:10:19.786Z,8.31
2023-02-27T12:15:33.596Z,8.10
2023-02-27T12:20:40.182Z,7.89
2023-02-27T12:25:50.915Z,7.80
2023-02-27T12:31:11.232Z,8.04
2023-02-27T12:36:14.293Z,8.20
2023-02-27T12:41:27.809Z,8.33
2023-02-27T12:46:29.801Z,8.28
2023-02-27T12:51:35.364Z,8.07
2023-02-27T12:56:59.129Z,7.83
2023-02-27T13:02:04.605Z,7.77
2023-02-27T13:07:22.362Z,7.85
2023-02-27T13:12:35.013Z,8.02
2023-02-27T13:17:52.398Z,8.19
2023-02-27T13:23:06.087Z,7.88
2023-02-27T13:28:13.758Z,8.29
2023-02-27T13:33:30.512Z,8.19
2023-02-27T13:38:42.728Z,8.26
2023-02-27T13:43:52.180Z,8.18
2023-02-27T13:49:29.549Z,7.90
2023-02-27T13:54:34.191Z,8.13
2023-02-27T13:59:40.475Z,8.32
2023-02-27T14:04:58.291Z,8.39
2023-02-27T14:10:03.211Z,8.17
2023-02-27T14:15:25.025Z,8.15
2023-02-27T14:20:30.901Z,7.89
2023-02-27T14:25:52.709Z,7.96
2023-02-27T14:31:06.529Z,7.92
2023-02-27T14:36:29.373Z,7.87
2023-02-27T14:41:53.210Z,7.65
2023-02-27T14:46:56.440Z,7.72
2023-02-27T14:52:12.470Z,7.79
2023-02-27T14:57:21.264Z,7.80
2023-02-27T15:02:26.311Z,7.75
2023-02-27T15:07:33.691Z,7.79
2023-02-27T15:12:39.595Z,7.70
2023-02-27T15:17:43.209Z,7.44
2023-02-27T15:22:45.149Z,7.74
2023-02-27T15:27:47.085Z,7.58
2023-02-27T15:32:49.468Z,7.94
2023-02-27T15:37:54.172Z,7.90
2023-02-27T15:42:56.969Z,7.81
2023-02-27T15:47:58.986Z,7.76
2023-02-27T15:53:20.818Z,7.79
2023-02-27T15:58:28.760Z,7.56
2023-02-27T16:03:40.076Z,6.93
2023-02-27T16:08:46.163Z,6.51
2023-02-27T16:13:48.356Z,6.40
2023-02-27T16:18:55.638Z,6.42
2023-02-27T16:24:18.279Z,6.26
2023-02-27T16:29:27.611Z,6.32
2023-02-27T16:34:45.631Z,6.45
2023-02-27T16:39:50.096Z,6.40
2023-02-27T16:44:52.008Z,6.31
2023-02-27T16:49:53.895Z,6.15
2023-02-27T16:54:56.035Z,6.02
2023-02-27T16:59:58.948Z,6.07
2023-02-27T17:05:01.715Z,6.08
2023-02-27T17:10:04.114Z,5.77
2023-02-27T17:15:06.706Z,5.78
2023-02-27T17:20:10.620Z,5.85
2023-02-27T17:25:13.438Z,5.88
2023-02-27T17:30:15.604Z,5.99
2023-02-27T17:35:17.620Z,5.95
2023-02-27T17:40:19.549Z,5.75
2023-02-27T17:45:21.785Z,5.89
2023-02-27T17:50:23.726Z,5.84
2023-02-27T17:55:25.623Z,5.86
2023-02-27T18:00:28.446Z,5.75
2023-02-27T18:05:30.386Z,5.82
2023-02-27T18:10:32.411Z,5.74
2023-02-27T18:15:34.382Z,5.63
2023-02-27T18:20:36.696Z,5.32
2023-02-27T18:25:39.016Z,5.17
2023-02-27T18:30:40.940Z,5.15
2023-02-27T18:35:42.967Z,5.08
2023-02-27T18:40:45.311Z,4.90
2023-02-27T18:45:47.270Z,4.83
2023-02-27T18:50:49.257Z,4.87
2023-02-27T18:55:51.355Z,4.76
2023-02-27T19:00:53.518Z,4.58
2023-02-27T19:05:55.632Z,4.63
2023-02-27T19:10:58.536Z,4.45
2023-02-27T19:16:06.314Z,4.50
2023-02-27T19:21:08.472Z,4.30
2023-02-27T19:26:10.401Z,4.43
2023-02-27T19:31:14.277Z,4.32
2023-02-27T19:36:18.661Z,4.27
2023-02-27T19:41:21.647Z,4.29
2023-02-27T19:46:30.106Z,4.12
2023-02-27T19:51:33.884Z,4.00
2023-02-27T19:56:35.945Z,3.93
2023-02-27T20:01:39.086Z,3.66
2023-02-27T20:06:44.083Z,3.64
2023-02-27T20:11:47.995Z,3.69
2023-02-27T20:16:49.964Z,3.68
2023-02-27T20:21:56.586Z,3.67
2023-02-27T20:26:59.337Z,3.48
2023-02-27T20:32:01.638Z,3.47
2023-02-27T20:37:03.740Z,3.41
2023-02-27T20:42:08.369Z,3.56
2023-02-27T20:47:10.581Z,3.61
2023-02-27T20:52:12.645Z,3.54
2023-02-27T20:57:14.666Z,3.55
2023-02-27T21:02:19.501Z,3.59
2023-02-27T21:07:22.645Z,3.49
2023-02-27T21:12:24.691Z,3.40
2023-02-27T21:17:26.771Z,3.25
2023-02-27T21:22:29.009Z,3.12
2023-02-27T21:27:31.017Z,3.04
2023-02-27T21:32:32.897Z,3.02
2023-02-27T21:37:34.867Z,2.89
2023-02-27T21:42:37.994Z,2.95
2023-02-27T21:47:40.069Z,2.97
2023-02-27T21:52:43.474Z,2.91
2023-02-27T21:57:45.492Z,2.85
2023-02-27T22:02:47.694Z,2.67
2023-02-27T22:07:49.734Z,2.48
2023-02-27T22:12:51.984Z,2.50
2023-02-27T22:17:54.940Z,2.44
2023-02-27T22:22:57.297Z,2.39
2023-02-27T22:27:59.902Z,2.36
2023-02-27T22:33:01.802Z,2.42
2023-02-27T22:38:03.786Z,2.39
2023-02-27T22:43:05.880Z,2.19
2023-02-27T22:48:07.814Z,2.18
2023-02-27T22:53:10.182Z,2.20
2023-02-27T22:58:12.216Z,2.15
2023-02-27T23:03:14.262Z,2.14
2023-02-27T23:08:16.831Z,2.06
2023-02-27T23:13:18.777Z,2.04
2023-02-27T23:18:21.564Z,1.96
2023-02-27T23:23:23.541Z,1.90
2023-02-27T23:28:25.453Z,1.95
2023-02-27T23:33:28.330Z,1.84
2023-02-27T23:38:30.557Z,1.81
2023-02-27T23:43:32.489Z,1.64
2023-02-27T23:48:34.903Z,1.61
2023-02-27T23:53:38.638Z,1.56
2023-02-27T23:58:40.615Z,1.52
